sensor_id;sensor_type;location;lat;lon;timestamp;pressure;altitude;pressure_sealevel;temperature;humidity
12203;BME280;6164;42.178;24.622;2022-11-20T00:00:01;99196.41;;;11.60;100.00
12203;BME280;6164;42.178;24.622;2022-11-20T00:02:27;99225.78;;;11.65;100.00
12203;BME280;6164;42.178;24.622;2022-11-20T00:04:54;99214.13;;;11.59;100.00
12203;BME280;6164;42.178;24.622;2022-11-20T00:07:20;99205.28;;;11.52;100.00
12203;BME280;6164;42.178;24.622;2022-11-20T00:09:47;99216.59;;;11.46;100.00
12203;BME280;6164;42.178;24.622;2022-11-20T00:12:13;99226.16;;;11.47;100.00
12203;BME280;6164;42.178;24.622;2022-11-20T00:14:40;99224.34;;;11.48;100.00
12203;BME280;6164;42.178;24.622;2022-11-20T00:17:08;99244.38;;;11.42;100.00
12203;BME280;6164;42.178;24.622;2022-11-20T00:19:34;99204.56;;;11.29;100.00
12203;BME280;6164;42.178;24.622;2022-11-20T00:22:01;99203.81;;;11.21;100.00
12203;BME280;6164;42.178;24.622;2022-11-20T00:24:27;99218.13;;;11.26;100.00
12203;BME280;6164;42.178;24.622;2022-11-20T00:26:54;99207.56;;;11.26;100.00
12203;BME280;6164;42.178;24.622;2022-11-20T00:29:20;99243.13;;;11.01;100.00
12203;BME280;6164;42.178;24.622;2022-11-20T00:31:47;99221.81;;;10.88;100.00
12203;BME280;6164;42.178;24.622;2022-11-20T00:34:14;99218.88;;;10.83;100.00
12203;BME280;6164;42.178;24.622;2022-11-20T00:36:41;99223.16;;;10.84;100.00
12203;BME280;6164;42.178;24.622;2022-11-20T00:39:07;99218.31;;;10.73;100.00
12203;BME280;6164;42.178;24.622;2022-11-20T00:41:34;99222.06;;;10.56;100.00
12203;BME280;6164;42.178;24.622;2022-11-20T00:44:00;99224.03;;;10.62;100.00
12203;BME280;6164;42.178;24.622;2022-11-20T00:46:27;99213.75;;;10.67;100.00
12203;BME280;6164;42.178;24.622;2022-11-20T00:48:53;99214.03;;;10.72;100.00
12203;BME280;6164;42.178;24.622;2022-11-20T00:51:23;99199.19;;;10.71;100.00
12203;BME280;6164;42.178;24.622;2022-11-20T00:53:50;99215.59;;;10.81;100.00
12203;BME280;6164;42.178;24.622;2022-11-20T00:56:17;99214.72;;;10.89;100.00
12203;BME280;6164;42.178;24.622;2022-11-20T00:58:45;99208.53;;;10.96;100.00
12203;BME280;6164;42.178;24.622;2022-11-20T01:01:12;99204.53;;;11.00;100.00
12203;BME280;6164;42.178;24.622;2022-11-20T01:03:39;99194.25;;;11.05;100.00
12203;BME280;6164;42.178;24.622;2022-11-20T01:06:07;99198.34;;;11.08;100.00
12203;BME280;6164;42.178;24.622;2022-11-20T01:08:36;99191.53;;;11.13;100.00
12203;BME280;6164;42.178;24.622;2022-11-20T01:11:04;99211.38;;;11.09;100.00
12203;BME280;6164;42.178;24.622;2022-11-20T01:13:31;99206.44;;;10.92;100.00
12203;BME280;6164;42.178;24.622;2022-11-20T01:16:04;99194.94;;;10.99;100.00
12203;BME280;6164;42.178;24.622;2022-11-20T01:18:31;99187.50;;;11.03;100.00
12203;BME280;6164;42.178;24.622;2022-11-20T01:20:59;99189.59;;;11.07;100.00
12203;BME280;6164;42.178;24.622;2022-11-20T01:23:27;99180.69;;;11.08;100.00
12203;BME280;6164;42.178;24.622;2022-11-20T01:25:58;99180.84;;;11.07;100.00
12203;BME280;6164;42.178;24.622;2022-11-20T01:28:25;99195.50;;;11.09;100.00
12203;BME280;6164;42.178;24.622;2022-11-20T01:30:51;99195.03;;;10.91;100.00
12203;BME280;6164;42.178;24.622;2022-11-20T01:33:18;99197.00;;;10.75;100.00
12203;BME280;6164;42.178;24.622;2022-11-20T01:35:44;99182.06;;;10.67;100.00
12203;BME280;6164;42.178;24.622;2022-11-20T01:38:11;99181.59;;;10.63;100.00
12203;BME280;6164;42.178;24.622;2022-11-20T01:40:37;99160.97;;;10.67;100.00
12203;BME280;6164;42.178;24.622;2022-11-20T01:43:09;99158.78;;;10.71;100.00
12203;BME280;6164;42.178;24.622;2022-11-20T01:48:28;99153.78;;;10.76;100.00
12203;BME280;6164;42.178;24.622;2022-11-20T01:50:56;99152.41;;;10.80;100.00
12203;BME280;6164;42.178;24.622;2022-11-20T01:53:25;99136.47;;;10.73;100.00
12203;BME280;6164;42.178;24.622;2022-11-20T01:55:53;99133.28;;;10.78;100.00
12203;BME280;6164;42.178;24.622;2022-11-20T01:58:26;99131.09;;;10.81;100.00
12203;BME280;6164;42.178;24.622;2022-11-20T02:00:55;99136.00;;;10.84;100.00
12203;BME280;6164;42.178;24.622;2022-11-20T02:03:21;99136.84;;;10.85;100.00
12203;BME280;6164;42.178;24.622;2022-11-20T02:05:49;99121.47;;;10.88;100.00
12203;BME280;6164;42.178;24.622;2022-11-20T02:08:17;99108.25;;;10.88;100.00
12203;BME280;6164;42.178;24.622;2022-11-20T02:10:44;99103.81;;;10.89;100.00
12203;BME280;6164;42.178;24.622;2022-11-20T02:13:11;99096.69;;;10.89;100.00
12203;BME280;6164;42.178;24.622;2022-11-20T02:15:56;99095.88;;;10.89;100.00
12203;BME280;6164;42.178;24.622;2022-11-20T02:18:22;99097.50;;;10.90;100.00
12203;BME280;6164;42.178;24.622;2022-11-20T02:20:50;99111.09;;;10.87;100.00
12203;BME280;6164;42.178;24.622;2022-11-20T02:23:20;99097.06;;;10.86;100.00
12203;BME280;6164;42.178;24.622;2022-11-20T02:25:51;99096.78;;;10.81;100.00
12203;BME280;6164;42.178;24.622;2022-11-20T02:28:18;99104.69;;;10.81;100.00
12203;BME280;6164;42.178;24.622;2022-11-20T02:30:45;99104.25;;;10.78;100.00
12203;BME280;6164;42.178;24.622;2022-11-20T02:33:12;99117.97;;;10.73;100.00
12203;BME280;6164;42.178;24.622;2022-11-20T02:35:39;99110.91;;;10.74;100.00
12203;BME280;6164;42.178;24.622;2022-11-20T02:38:07;99123.91;;;10.75;100.00
12203;BME280;6164;42.178;24.622;2022-11-20T02:40:33;99121.72;;;10.79;100.00
12203;BME280;6164;42.178;24.622;2022-11-20T02:43:01;99125.91;;;10.88;100.00
12203;BME280;6164;42.178;24.622;2022-11-20T02:45:27;99128.38;;;10.89;100.00
12203;BME280;6164;42.178;24.622;2022-11-20T02:47:54;99127.19;;;10.92;100.00
12203;BME280;6164;42.178;24.622;2022-11-20T02:50:20;99134.56;;;10.96;100.00
12203;BME280;6164;42.178;24.622;2022-11-20T02:52:47;99127.13;;;11.00;100.00
12203;BME280;6164;42.178;24.622;2022-11-20T02:55:13;99122.75;;;11.07;100.00
12203;BME280;6164;42.178;24.622;2022-11-20T02:57:40;99125.72;;;11.04;100.00
12203;BME280;6164;42.178;24.622;2022-11-20T03:00:08;99120.28;;;11.05;100.00
12203;BME280;6164;42.178;24.622;2022-11-20T03:02:35;99122.19;;;11.11;100.00
12203;BME280;6164;42.178;24.622;2022-11-20T03:05:01;99124.38;;;11.22;100.00
12203;BME280;6164;42.178;24.622;2022-11-20T03:07:28;99111.03;;;11.30;100.00
12203;BME280;6164;42.178;24.622;2022-11-20T03:09:54;99120.06;;;11.36;100.00
12203;BME280;6164;42.178;24.622;2022-11-20T03:12:21;99121.78;;;11.43;100.00
12203;BME280;6164;42.178;24.622;2022-11-20T03:14:47;99120.31;;;11.55;100.00
12203;BME280;6164;42.178;24.622;2022-11-20T03:17:15;99114.75;;;11.65;100.00
12203;BME280;6164;42.178;24.622;2022-11-20T03:19:42;99111.63;;;11.76;100.00
12203;BME280;6164;42.178;24.622;2022-11-20T03:22:08;99115.59;;;11.86;100.00
12203;BME280;6164;42.178;24.622;2022-11-20T03:24:35;99105.97;;;12.00;100.00
12203;BME280;6164;42.178;24.622;2022-11-20T03:27:01;99113.84;;;12.15;100.00
12203;BME280;6164;42.178;24.622;2022-11-20T03:29:28;99120.31;;;12.33;100.00
12203;BME280;6164;42.178;24.622;2022-11-20T03:31:54;99143.00;;;12.42;100.00
12203;BME280;6164;42.178;24.622;2022-11-20T03:34:22;99131.91;;;12.53;100.00
12203;BME280;6164;42.178;24.622;2022-11-20T03:36:48;99143.19;;;12.62;100.00
12203;BME280;6164;42.178;24.622;2022-11-20T03:39:15;99162.94;;;12.66;100.00
12203;BME280;6164;42.178;24.622;2022-11-20T03:41:41;99160.75;;;12.69;100.00
12203;BME280;6164;42.178;24.622;2022-11-20T03:44:09;99148.38;;;12.76;100.00
12203;BME280;6164;42.178;24.622;2022-11-20T03:46:35;99157.16;;;12.83;100.00
12203;BME280;6164;42.178;24.622;2022-11-20T03:49:02;99146.63;;;12.90;100.00
12203;BME280;6164;42.178;24.622;2022-11-20T03:51:30;99140.72;;;12.88;100.00
12203;BME280;6164;42.178;24.622;2022-11-20T03:53:58;99140.53;;;12.89;100.00
12203;BME280;6164;42.178;24.622;2022-11-20T03:56:26;99142.78;;;12.92;100.00
12203;BME280;6164;42.178;24.622;2022-11-20T03:58:53;99142.38;;;12.95;100.00
12203;BME280;6164;42.178;24.622;2022-11-20T04:01:20;99142.19;;;12.97;100.00
12203;BME280;6164;42.178;24.622;2022-11-20T04:03:47;99144.09;;;13.03;100.00
12203;BME280;6164;42.178;24.622;2022-11-20T04:06:14;99167.44;;;13.20;100.00
12203;BME280;6164;42.178;24.622;2022-11-20T04:08:42;99161.81;;;13.37;100.00
12203;BME280;6164;42.178;24.622;2022-11-20T04:11:10;99166.13;;;13.38;100.00
12203;BME280;6164;42.178;24.622;2022-11-20T04:13:36;99175.94;;;13.44;100.00
12203;BME280;6164;42.178;24.622;2022-11-20T04:16:04;99177.78;;;13.50;100.00
12203;BME280;6164;42.178;24.622;2022-11-20T04:18:30;99186.38;;;13.52;100.00
12203;BME280;6164;42.178;24.622;2022-11-20T04:20:57;99170.88;;;13.55;100.00
12203;BME280;6164;42.178;24.622;2022-11-20T04:23:24;99164.16;;;13.59;100.00
12203;BME280;6164;42.178;24.622;2022-11-20T04:25:51;99154.19;;;13.61;100.00
12203;BME280;6164;42.178;24.622;2022-11-20T04:28:18;99150.69;;;13.61;100.00
12203;BME280;6164;42.178;24.622;2022-11-20T04:30:44;99153.97;;;13.63;100.00
12203;BME280;6164;42.178;24.622;2022-11-20T04:33:11;99158.72;;;13.67;100.00
12203;BME280;6164;42.178;24.622;2022-11-20T04:35:38;99150.75;;;13.67;100.00
12203;BME280;6164;42.178;24.622;2022-11-20T04:38:04;99155.22;;;13.67;100.00
12203;BME280;6164;42.178;24.622;2022-11-20T04:40:30;99162.34;;;13.66;100.00
12203;BME280;6164;42.178;24.622;2022-11-20T04:42:58;99156.06;;;13.67;100.00
12203;BME280;6164;42.178;24.622;2022-11-20T04:45:25;99146.44;;;13.66;100.00
12203;BME280;6164;42.178;24.622;2022-11-20T04:47:51;99154.81;;;13.63;100.00
12203;BME280;6164;42.178;24.622;2022-11-20T04:50:18;99133.34;;;13.58;100.00
12203;BME280;6164;42.178;24.622;2022-11-20T04:52:45;99123.34;;;13.54;100.00
12203;BME280;6164;42.178;24.622;2022-11-20T04:55:11;99117.00;;;13.48;100.00
12203;BME280;6164;42.178;24.622;2022-11-20T04:57:38;99123.56;;;13.52;100.00
12203;BME280;6164;42.178;24.622;2022-11-20T05:00:07;99127.84;;;13.53;100.00
12203;BME280;6164;42.178;24.622;2022-11-20T05:02:33;99122.09;;;13.50;100.00
12203;BME280;6164;42.178;24.622;2022-11-20T05:05:00;99126.78;;;13.48;100.00
12203;BME280;6164;42.178;24.622;2022-11-20T05:07:26;99133.91;;;13.41;100.00
12203;BME280;6164;42.178;24.622;2022-11-20T05:09:53;99120.22;;;13.37;100.00
12203;BME280;6164;42.178;24.622;2022-11-20T05:12:19;99129.19;;;13.36;100.00
12203;BME280;6164;42.178;24.622;2022-11-20T05:14:46;99121.00;;;13.31;100.00
12203;BME280;6164;42.178;24.622;2022-11-20T05:17:13;99136.31;;;13.29;100.00
12203;BME280;6164;42.178;24.622;2022-11-20T05:19:40;99130.38;;;13.27;100.00
12203;BME280;6164;42.178;24.622;2022-11-20T05:22:06;99127.13;;;13.32;100.00
12203;BME280;6164;42.178;24.622;2022-11-20T05:24:33;99132.63;;;13.30;100.00
12203;BME280;6164;42.178;24.622;2022-11-20T05:26:59;99133.25;;;13.32;100.00
12203;BME280;6164;42.178;24.622;2022-11-20T05:29:26;99134.69;;;13.35;100.00
12203;BME280;6164;42.178;24.622;2022-11-20T05:31:52;99152.66;;;13.39;100.00
12203;BME280;6164;42.178;24.622;2022-11-20T05:34:20;99136.72;;;13.33;100.00
12203;BME280;6164;42.178;24.622;2022-11-20T05:36:47;99143.69;;;13.40;100.00
12203;BME280;6164;42.178;24.622;2022-11-20T05:39:13;99137.75;;;13.38;100.00
12203;BME280;6164;42.178;24.622;2022-11-20T05:41:39;99127.78;;;13.40;100.00
12203;BME280;6164;42.178;24.622;2022-11-20T05:44:06;99122.91;;;13.44;100.00
12203;BME280;6164;42.178;24.622;2022-11-20T05:46:32;99142.53;;;13.49;100.00
12203;BME280;6164;42.178;24.622;2022-11-20T05:48:59;99151.66;;;13.47;100.00
12203;BME280;6164;42.178;24.622;2022-11-20T05:51:27;99146.16;;;13.48;100.00
12203;BME280;6164;42.178;24.622;2022-11-20T05:53:53;99141.69;;;13.49;100.00
12203;BME280;6164;42.178;24.622;2022-11-20T05:56:22;99145.53;;;13.46;100.00
12203;BME280;6164;42.178;24.622;2022-11-20T05:58:48;99154.13;;;13.48;100.00
12203;BME280;6164;42.178;24.622;2022-11-20T06:01:17;99139.88;;;13.49;100.00
12203;BME280;6164;42.178;24.622;2022-11-20T06:03:44;99147.19;;;13.47;100.00
12203;BME280;6164;42.178;24.622;2022-11-20T06:06:12;99148.81;;;13.48;100.00
12203;BME280;6164;42.178;24.622;2022-11-20T06:08:40;99143.28;;;13.43;100.00
12203;BME280;6164;42.178;24.622;2022-11-20T06:11:08;99153.28;;;13.48;100.00
12203;BME280;6164;42.178;24.622;2022-11-20T06:13:34;99165.97;;;13.46;100.00
12203;BME280;6164;42.178;24.622;2022-11-20T06:16:01;99166.75;;;13.46;100.00
12203;BME280;6164;42.178;24.622;2022-11-20T06:18:29;99177.16;;;13.48;100.00
12203;BME280;6164;42.178;24.622;2022-11-20T06:20:59;99184.13;;;13.49;100.00
12203;BME280;6164;42.178;24.622;2022-11-20T06:23:27;99171.69;;;13.49;100.00
12203;BME280;6164;42.178;24.622;2022-11-20T06:25:55;99172.69;;;13.48;100.00
12203;BME280;6164;42.178;24.622;2022-11-20T06:28:21;99204.31;;;13.50;100.00
12203;BME280;6164;42.178;24.622;2022-11-20T06:30:48;99215.94;;;13.49;100.00
12203;BME280;6164;42.178;24.622;2022-11-20T06:33:14;99202.47;;;13.50;100.00
12203;BME280;6164;42.178;24.622;2022-11-20T06:35:41;99199.03;;;13.56;100.00
12203;BME280;6164;42.178;24.622;2022-11-20T06:38:07;99213.34;;;13.62;100.00
12203;BME280;6164;42.178;24.622;2022-11-20T06:40:34;99219.31;;;13.70;100.00
12203;BME280;6164;42.178;24.622;2022-11-20T06:43:02;99211.97;;;13.72;100.00
12203;BME280;6164;42.178;24.622;2022-11-20T06:45:28;99203.22;;;13.78;100.00
12203;BME280;6164;42.178;24.622;2022-11-20T06:47:56;99194.69;;;13.89;100.00
12203;BME280;6164;42.178;24.622;2022-11-20T06:50:23;99208.00;;;14.02;100.00
12203;BME280;6164;42.178;24.622;2022-11-20T06:52:49;99210.69;;;14.09;100.00
12203;BME280;6164;42.178;24.622;2022-11-20T06:55:16;99202.53;;;14.17;100.00
12203;BME280;6164;42.178;24.622;2022-11-20T06:57:42;99196.06;;;14.26;100.00
12203;BME280;6164;42.178;24.622;2022-11-20T07:00:11;99192.38;;;14.33;100.00
12203;BME280;6164;42.178;24.622;2022-11-20T07:02:37;99185.03;;;14.42;100.00
12203;BME280;6164;42.178;24.622;2022-11-20T07:05:04;99196.91;;;14.52;100.00
12203;BME280;6164;42.178;24.622;2022-11-20T07:07:31;99174.22;;;14.63;100.00
12203;BME280;6164;42.178;24.622;2022-11-20T07:09:57;99195.69;;;14.68;100.00
12203;BME280;6164;42.178;24.622;2022-11-20T07:12:24;99175.69;;;14.72;100.00
12203;BME280;6164;42.178;24.622;2022-11-20T07:14:50;99184.69;;;14.78;100.00
12203;BME280;6164;42.178;24.622;2022-11-20T07:17:18;99177.50;;;14.85;100.00
12203;BME280;6164;42.178;24.622;2022-11-20T07:19:45;99176.88;;;14.89;100.00
12203;BME280;6164;42.178;24.622;2022-11-20T07:22:11;99175.88;;;14.97;100.00
12203;BME280;6164;42.178;24.622;2022-11-20T07:24:38;99180.13;;;15.04;100.00
12203;BME280;6164;42.178;24.622;2022-11-20T07:27:04;99174.00;;;15.10;100.00
12203;BME280;6164;42.178;24.622;2022-11-20T07:29:31;99174.41;;;15.14;100.00
12203;BME280;6164;42.178;24.622;2022-11-20T07:31:57;99169.88;;;15.21;100.00
12203;BME280;6164;42.178;24.622;2022-11-20T07:34:25;99167.22;;;15.27;100.00
12203;BME280;6164;42.178;24.622;2022-11-20T07:36:52;99176.41;;;15.38;100.00
12203;BME280;6164;42.178;24.622;2022-11-20T07:39:18;99168.66;;;15.43;100.00
12203;BME280;6164;42.178;24.622;2022-11-20T07:41:45;99161.69;;;15.48;100.00
12203;BME280;6164;42.178;24.622;2022-11-20T07:44:11;99155.50;;;15.54;100.00
12203;BME280;6164;42.178;24.622;2022-11-20T07:46:38;99162.84;;;15.59;100.00
12203;BME280;6164;42.178;24.622;2022-11-20T07:49:04;99167.97;;;15.60;100.00
12203;BME280;6164;42.178;24.622;2022-11-20T07:51:32;99157.72;;;15.64;100.00
12203;BME280;6164;42.178;24.622;2022-11-20T07:54:01;99159.34;;;15.71;100.00
12203;BME280;6164;42.178;24.622;2022-11-20T07:56:28;99151.13;;;15.73;100.00
12203;BME280;6164;42.178;24.622;2022-11-20T07:58:54;99146.41;;;15.75;100.00
12203;BME280;6164;42.178;24.622;2022-11-20T08:01:21;99149.66;;;15.77;100.00
12203;BME280;6164;42.178;24.622;2022-11-20T08:03:47;99152.13;;;15.78;100.00
12203;BME280;6164;42.178;24.622;2022-11-20T08:06:14;99163.16;;;15.82;100.00
12203;BME280;6164;42.178;24.622;2022-11-20T08:08:42;99166.44;;;15.84;100.00
12203;BME280;6164;42.178;24.622;2022-11-20T08:11:09;99159.06;;;15.86;100.00
12203;BME280;6164;42.178;24.622;2022-11-20T08:13:53;99167.63;;;15.88;100.00
12203;BME280;6164;42.178;24.622;2022-11-20T08:16:38;99161.94;;;15.85;100.00
12203;BME280;6164;42.178;24.622;2022-11-20T08:19:04;99159.63;;;15.88;100.00
12203;BME280;6164;42.178;24.622;2022-11-20T08:21:31;99161.22;;;16.02;100.00
12203;BME280;6164;42.178;24.622;2022-11-20T08:23:59;99161.09;;;16.22;100.00
12203;BME280;6164;42.178;24.622;2022-11-20T08:26:26;99150.56;;;16.33;100.00
12203;BME280;6164;42.178;24.622;2022-11-20T08:28:53;99154.38;;;16.50;100.00
12203;BME280;6164;42.178;24.622;2022-11-20T08:31:19;99152.84;;;16.61;100.00
12203;BME280;6164;42.178;24.622;2022-11-20T08:33:46;99161.19;;;16.71;100.00
12203;BME280;6164;42.178;24.622;2022-11-20T08:36:12;99137.13;;;16.77;100.00
12203;BME280;6164;42.178;24.622;2022-11-20T08:38:39;99154.50;;;16.86;100.00
12203;BME280;6164;42.178;24.622;2022-11-20T08:41:07;99146.22;;;16.94;100.00
12203;BME280;6164;42.178;24.622;2022-11-20T08:43:53;99125.41;;;17.03;100.00
12203;BME280;6164;42.178;24.622;2022-11-20T08:46:20;99122.53;;;17.04;100.00
12203;BME280;6164;42.178;24.622;2022-11-20T08:48:46;99125.50;;;17.15;100.00
12203;BME280;6164;42.178;24.622;2022-11-20T08:51:13;99127.03;;;17.22;100.00
12203;BME280;6164;42.178;24.622;2022-11-20T08:53:40;99124.22;;;17.35;100.00
12203;BME280;6164;42.178;24.622;2022-11-20T08:56:08;99110.16;;;17.46;100.00
12203;BME280;6164;42.178;24.622;2022-11-20T08:58:36;99103.94;;;17.52;100.00
12203;BME280;6164;42.178;24.622;2022-11-20T09:01:02;99107.13;;;17.61;100.00
12203;BME280;6164;42.178;24.622;2022-11-20T09:03:29;99104.38;;;17.67;100.00
12203;BME280;6164;42.178;24.622;2022-11-20T09:05:56;99093.25;;;17.70;100.00
12203;BME280;6164;42.178;24.622;2022-11-20T09:08:23;99090.84;;;17.80;100.00
12203;BME280;6164;42.178;24.622;2022-11-20T09:10:50;99074.72;;;17.87;100.00
12203;BME280;6164;42.178;24.622;2022-11-20T09:13:18;99059.44;;;17.94;100.00
12203;BME280;6164;42.178;24.622;2022-11-20T09:15:45;99065.38;;;18.07;100.00
12203;BME280;6164;42.178;24.622;2022-11-20T09:18:12;99064.94;;;18.22;100.00
12203;BME280;6164;42.178;24.622;2022-11-20T09:20:38;99058.56;;;18.34;100.00
12203;BME280;6164;42.178;24.622;2022-11-20T09:23:05;99055.34;;;18.44;100.00
12203;BME280;6164;42.178;24.622;2022-11-20T09:25:31;99047.81;;;18.53;100.00
12203;BME280;6164;42.178;24.622;2022-11-20T09:27:58;99040.25;;;18.61;100.00
12203;BME280;6164;42.178;24.622;2022-11-20T09:30:26;99038.25;;;18.68;100.00
12203;BME280;6164;42.178;24.622;2022-11-20T09:32:53;99027.22;;;18.76;100.00
12203;BME280;6164;42.178;24.622;2022-11-20T09:35:19;99014.78;;;18.82;100.00
12203;BME280;6164;42.178;24.622;2022-11-20T09:37:46;99012.06;;;18.93;100.00
12203;BME280;6164;42.178;24.622;2022-11-20T09:40:17;99004.75;;;19.00;100.00
12203;BME280;6164;42.178;24.622;2022-11-20T09:42:46;99005.91;;;19.04;100.00
12203;BME280;6164;42.178;24.622;2022-11-20T09:45:15;99002.28;;;19.10;100.00
12203;BME280;6164;42.178;24.622;2022-11-20T09:47:53;99002.75;;;19.07;100.00
12203;BME280;6164;42.178;24.622;2022-11-20T09:50:26;98997.66;;;19.06;100.00
12203;BME280;6164;42.178;24.622;2022-11-20T09:52:59;98992.28;;;19.06;100.00
12203;BME280;6164;42.178;24.622;2022-11-20T09:55:30;98997.06;;;19.04;100.00
12203;BME280;6164;42.178;24.622;2022-11-20T09:57:57;98996.34;;;19.08;100.00
12203;BME280;6164;42.178;24.622;2022-11-20T10:00:25;99000.88;;;19.08;100.00
12203;BME280;6164;42.178;24.622;2022-11-20T10:02:55;98997.75;;;19.11;100.00
12203;BME280;6164;42.178;24.622;2022-11-20T10:10:35;98996.28;;;19.31;100.00
12203;BME280;6164;42.178;24.622;2022-11-20T10:13:09;98987.53;;;19.36;100.00
12203;BME280;6164;42.178;24.622;2022-11-20T10:15:39;98990.41;;;19.46;100.00
12203;BME280;6164;42.178;24.622;2022-11-20T10:18:11;98990.50;;;19.51;100.00
12203;BME280;6164;42.178;24.622;2022-11-20T10:20:42;98975.13;;;19.58;100.00
12203;BME280;6164;42.178;24.622;2022-11-20T10:25:52;98972.47;;;19.75;100.00
12203;BME280;6164;42.178;24.622;2022-11-20T10:28:24;98970.44;;;19.82;100.00
12203;BME280;6164;42.178;24.622;2022-11-20T10:30:57;98967.13;;;19.91;100.00
12203;BME280;6164;42.178;24.622;2022-11-20T10:33:27;98962.72;;;20.02;100.00
12203;BME280;6164;42.178;24.622;2022-11-20T10:35:59;98950.81;;;20.09;100.00
12203;BME280;6164;42.178;24.622;2022-11-20T10:38:31;98959.28;;;20.18;100.00
12203;BME280;6164;42.178;24.622;2022-11-20T10:41:01;98956.09;;;20.21;100.00
12203;BME280;6164;42.178;24.622;2022-11-20T10:43:42;98940.59;;;20.23;100.00
12203;BME280;6164;42.178;24.622;2022-11-20T10:46:10;98942.53;;;20.27;100.00
12203;BME280;6164;42.178;24.622;2022-11-20T10:48:41;98936.09;;;20.28;100.00
12203;BME280;6164;42.178;24.622;2022-11-20T10:51:12;98927.00;;;20.29;100.00
12203;BME280;6164;42.178;24.622;2022-11-20T10:56:21;98930.88;;;20.38;100.00
12203;BME280;6164;42.178;24.622;2022-11-20T10:59:00;98937.63;;;20.41;100.00
12203;BME280;6164;42.178;24.622;2022-11-20T11:01:28;98926.41;;;20.44;100.00
12203;BME280;6164;42.178;24.622;2022-11-20T11:03:56;98918.69;;;20.47;99.40
12203;BME280;6164;42.178;24.622;2022-11-20T11:06:25;98909.31;;;20.50;96.61
12203;BME280;6164;42.178;24.622;2022-11-20T11:08:55;98899.97;;;20.52;94.23
12203;BME280;6164;42.178;24.622;2022-11-20T11:11:24;98894.63;;;20.52;90.28
12203;BME280;6164;42.178;24.622;2022-11-20T11:13:51;98895.72;;;20.56;91.92
12203;BME280;6164;42.178;24.622;2022-11-20T11:16:20;98891.75;;;20.59;92.91
12203;BME280;6164;42.178;24.622;2022-11-20T11:18:46;98883.22;;;20.62;91.62
12203;BME280;6164;42.178;24.622;2022-11-20T11:21:19;98889.13;;;20.64;88.65
12203;BME280;6164;42.178;24.622;2022-11-20T11:23:48;98867.75;;;20.69;76.44
12203;BME280;6164;42.178;24.622;2022-11-20T11:26:23;98867.03;;;20.78;74.07
12203;BME280;6164;42.178;24.622;2022-11-20T11:28:54;98864.97;;;20.85;70.03
12203;BME280;6164;42.178;24.622;2022-11-20T11:31:24;98862.97;;;20.98;69.11
12203;BME280;6164;42.178;24.622;2022-11-20T11:33:51;98854.72;;;21.04;66.04
12203;BME280;6164;42.178;24.622;2022-11-20T11:36:21;98851.31;;;21.14;67.52
12203;BME280;6164;42.178;24.622;2022-11-20T11:38:50;98854.63;;;21.21;65.57
12203;BME280;6164;42.178;24.622;2022-11-20T11:41:19;98846.88;;;21.24;65.67
12203;BME280;6164;42.178;24.622;2022-11-20T11:43:50;98846.91;;;21.29;65.50
12203;BME280;6164;42.178;24.622;2022-11-20T11:46:35;98845.09;;;21.35;65.61
12203;BME280;6164;42.178;24.622;2022-11-20T11:49:11;98848.88;;;21.39;64.77
12203;BME280;6164;42.178;24.622;2022-11-20T11:51:41;98855.94;;;21.45;59.30
12203;BME280;6164;42.178;24.622;2022-11-20T11:54:14;98843.91;;;21.52;56.16
12203;BME280;6164;42.178;24.622;2022-11-20T11:56:42;98848.75;;;21.55;56.29
12203;BME280;6164;42.178;24.622;2022-11-20T11:59:11;98855.19;;;21.54;57.51
12203;BME280;6164;42.178;24.622;2022-11-20T12:01:41;98847.94;;;21.55;58.05
12203;BME280;6164;42.178;24.622;2022-11-20T12:04:11;98840.69;;;21.55;58.86
12203;BME280;6164;42.178;24.622;2022-11-20T12:06:42;98839.91;;;21.60;57.78
12203;BME280;6164;42.178;24.622;2022-11-20T12:09:10;98838.34;;;21.64;57.80
12203;BME280;6164;42.178;24.622;2022-11-20T12:11:37;98828.94;;;21.61;56.56
12203;BME280;6164;42.178;24.622;2022-11-20T12:14:09;98835.97;;;21.67;52.40
12203;BME280;6164;42.178;24.622;2022-11-20T12:16:37;98838.94;;;21.71;53.38
12203;BME280;6164;42.178;24.622;2022-11-20T12:19:07;98830.09;;;21.75;54.37
12203;BME280;6164;42.178;24.622;2022-11-20T12:21:35;98836.38;;;21.81;53.75
12203;BME280;6164;42.178;24.622;2022-11-20T12:24:13;98849.03;;;21.90;52.18
12203;BME280;6164;42.178;24.622;2022-11-20T12:26:48;98841.00;;;21.90;53.18
12203;BME280;6164;42.178;24.622;2022-11-20T12:29:21;98839.13;;;21.91;52.31
12203;BME280;6164;42.178;24.622;2022-11-20T12:32:04;98846.13;;;21.97;51.15
12203;BME280;6164;42.178;24.622;2022-11-20T12:34:47;98840.72;;;21.92;52.09
12203;BME280;6164;42.178;24.622;2022-11-20T12:37:22;98836.66;;;21.89;51.52
12203;BME280;6164;42.178;24.622;2022-11-20T12:39:56;98825.13;;;21.89;52.79
12203;BME280;6164;42.178;24.622;2022-11-20T12:42:28;98829.69;;;21.88;51.25
12203;BME280;6164;42.178;24.622;2022-11-20T12:48:19;98818.94;;;21.88;53.13
12203;BME280;6164;42.178;24.622;2022-11-20T12:50:51;98821.59;;;21.83;52.55
12203;BME280;6164;42.178;24.622;2022-11-20T12:53:25;98823.97;;;21.80;52.46
12203;BME280;6164;42.178;24.622;2022-11-20T12:55:56;98837.94;;;21.77;52.90
12203;BME280;6164;42.178;24.622;2022-11-20T12:58:25;98830.88;;;21.71;53.86
12203;BME280;6164;42.178;24.622;2022-11-20T13:00:56;98863.97;;;21.76;51.15
12203;BME280;6164;42.178;24.622;2022-11-20T13:03:31;98878.94;;;21.99;48.69
12203;BME280;6164;42.178;24.622;2022-11-20T13:06:02;98868.69;;;21.96;49.31
12203;BME280;6164;42.178;24.622;2022-11-20T13:08:33;98881.41;;;22.05;47.97
12203;BME280;6164;42.178;24.622;2022-11-20T13:11:01;98873.34;;;22.05;48.56
12203;BME280;6164;42.178;24.622;2022-11-20T13:13:33;98869.25;;;21.98;50.01